createdAt,value
2022-10-11T00:01:33.876Z,22.40
2022-10-11T00:06:26.850Z,19.90
2022-10-11T00:08:53.302Z,24.30
2022-10-11T00:11:19.813Z,17.90
2022-10-11T00:13:49.247Z,17.70
2022-10-11T00:16:15.773Z,23.70
2022-10-11T00:21:11.418Z,19.40
2022-10-11T00:23:38.130Z,15.80
2022-10-11T00:26:05.739Z,16.70
2022-10-11T00:28:32.604Z,19.40
2022-10-11T00:30:59.281Z,20.20
2022-10-11T00:33:25.817Z,20.70
2022-10-11T00:35:52.324Z,18.60
2022-10-11T00:38:18.967Z,19.50
2022-10-11T00:40:45.454Z,18.50
2022-10-11T00:43:20.386Z,17.10
2022-10-11T00:45:52.688Z,16.30
2022-10-11T00:48:22.822Z,17.80
2022-10-11T00:50:49.270Z,14.00
2022-10-11T00:53:15.726Z,22.90
2022-10-11T00:55:49.339Z,16.30
2022-10-11T00:58:17.100Z,15.30
2022-10-11T01:00:43.858Z,13.10
2022-10-11T01:03:10.437Z,16.00
2022-10-11T01:05:37.272Z,12.70
2022-10-11T01:10:30.666Z,20.10
2022-10-11T01:13:25.866Z,23.90
2022-10-11T01:15:55.401Z,17.50
2022-10-11T01:18:28.407Z,19.50
2022-10-11T01:21:10.391Z,19.60
2022-10-11T01:24:11.078Z,22.40
2022-10-11T01:27:15.077Z,15.50
2022-10-11T01:29:52.565Z,18.10
2022-10-11T01:32:24.105Z,20.50
2022-10-11T01:35:01.403Z,17.70
2022-10-11T01:37:36.753Z,16.50
2022-10-11T01:40:13.417Z,18.40
2022-10-11T01:42:40.375Z,20.30
2022-10-11T01:45:08.758Z,27.00
2022-10-11T01:47:38.337Z,24.20
2022-10-11T01:50:07.440Z,19.80
2022-10-11T01:52:34.490Z,13.90
2022-10-11T01:55:22.524Z,17.90
2022-10-11T01:58:06.468Z,18.10
2022-10-11T02:00:43.412Z,22.30
2022-10-11T02:03:57.746Z,15.90
2022-10-11T02:06:31.756Z,16.80
2022-10-11T02:09:16.002Z,17.70
2022-10-11T02:11:42.455Z,18.90
2022-10-11T02:14:11.046Z,15.90
2022-10-11T02:16:50.595Z,16.90
2022-10-11T02:19:18.856Z,17.70
2022-10-11T02:21:47.294Z,14.00
2022-10-11T02:24:18.417Z,14.50
2022-10-11T02:26:47.983Z,18.40
2022-10-11T02:29:14.686Z,19.00
2022-10-11T02:31:41.839Z,14.50
2022-10-11T02:34:17.796Z,13.60
2022-10-11T02:36:53.573Z,14.00
2022-10-11T02:39:25.526Z,12.00
2022-10-11T02:41:52.305Z,15.90
2022-10-11T02:44:32.405Z,14.60
2022-10-11T02:46:59.636Z,15.40
2022-10-11T02:49:27.098Z,14.40
2022-10-11T02:51:56.883Z,14.50
2022-10-11T02:54:24.790Z,16.40
2022-10-11T02:56:51.508Z,19.40
2022-10-11T02:59:17.958Z,14.20
2022-10-11T03:01:45.430Z,13.00
2022-10-11T03:04:11.931Z,15.00
2022-10-11T03:06:39.937Z,14.40
2022-10-11T03:09:06.465Z,14.20
2022-10-11T03:11:33.319Z,11.10
2022-10-11T03:14:00.908Z,13.90
2022-10-11T03:16:27.584Z,16.00
2022-10-11T03:18:54.192Z,16.90
2022-10-11T03:21:20.745Z,12.50
2022-10-11T03:23:47.344Z,15.10
2022-10-11T03:26:13.841Z,12.10
2022-10-11T03:28:40.453Z,18.60
2022-10-11T03:31:07.368Z,12.00
2022-10-11T03:37:18.938Z,15.30
2022-10-11T03:39:45.994Z,15.20
2022-10-11T03:42:13.458Z,13.60
2022-10-11T03:44:41.656Z,14.80
2022-10-11T03:47:08.445Z,15.20
2022-10-11T03:49:36.850Z,15.50
2022-10-11T03:52:06.689Z,12.30
2022-10-11T03:54:33.411Z,12.80
2022-10-11T03:57:00.074Z,20.40
2022-10-11T03:59:26.778Z,10.50
2022-10-11T04:01:53.554Z,12.00
2022-10-11T04:04:20.303Z,14.10
2022-10-11T04:06:46.986Z,17.90
2022-10-11T04:09:13.698Z,20.80
2022-10-11T04:11:40.466Z,21.10
2022-10-11T04:14:07.123Z,17.60
2022-10-11T04:16:35.237Z,19.60
2022-10-11T04:19:01.897Z,16.30
2022-10-11T04:21:28.595Z,18.30
2022-10-11T04:23:55.331Z,25.10
2022-10-11T04:26:22.012Z,16.80
2022-10-11T04:28:48.749Z,18.20
2022-10-11T04:31:15.509Z,21.20
2022-10-11T04:33:42.175Z,17.00
2022-10-11T04:36:09.132Z,21.00
2022-10-11T04:38:36.054Z,16.50
2022-10-11T04:41:10.147Z,19.50
2022-10-11T04:43:36.887Z,15.20
2022-10-11T04:46:04.447Z,23.20
2022-10-11T04:48:31.337Z,40.30
2022-10-11T04:53:24.768Z,24.80
2022-10-11T04:58:29.404Z,36.00
2022-10-11T05:00:56.129Z,31.60
2022-10-11T05:03:25.680Z,40.30
2022-10-11T05:05:52.927Z,38.40
2022-10-11T05:08:19.924Z,40.70
2022-10-11T05:11:04.215Z,56.10
2022-10-11T05:13:31.212Z,54.10
2022-10-11T05:15:57.990Z,45.60
2022-10-11T05:18:24.741Z,49.50
2022-10-11T05:21:09.116Z,63.30
2022-10-11T05:23:36.139Z,47.30
2022-10-11T05:26:03.566Z,50.70
2022-10-11T05:28:30.699Z,37.60
2022-10-11T05:33:24.378Z,25.00
2022-10-11T05:38:17.967Z,23.40
2022-10-11T05:40:44.736Z,20.50
2022-10-11T05:43:11.477Z,25.70
2022-10-11T05:45:38.824Z,29.30
2022-10-11T05:48:05.862Z,21.70
2022-10-11T05:50:32.598Z,21.70
2022-10-11T05:55:26.234Z,50.10
2022-10-11T05:57:54.610Z,23.20
2022-10-11T06:00:22.068Z,23.70
2022-10-11T06:02:48.844Z,22.70
2022-10-11T06:05:16.235Z,21.40
2022-10-11T06:07:43.123Z,24.60
2022-10-11T06:12:36.787Z,26.70
2022-10-11T06:17:30.846Z,22.70
2022-10-11T06:22:24.175Z,30.00
2022-10-11T06:24:50.927Z,32.00
2022-10-11T06:29:44.216Z,30.80
2022-10-11T06:32:13.291Z,27.20
2022-10-11T06:34:39.995Z,23.00
2022-10-11T06:37:07.451Z,20.50
2022-10-11T06:39:35.116Z,25.90
2022-10-11T06:42:02.061Z,33.80
2022-10-11T06:44:29.302Z,19.00
2022-10-11T06:46:56.046Z,16.30
2022-10-11T06:49:23.644Z,15.80
2022-10-11T06:51:50.971Z,18.60
2022-10-11T06:54:17.665Z,22.10
2022-10-11T06:56:45.764Z,15.40
2022-10-11T06:59:13.532Z,18.20
2022-10-11T07:01:41.502Z,20.60
2022-10-11T07:04:08.407Z,17.40
2022-10-11T07:06:39.401Z,12.10
2022-10-11T07:09:06.429Z,55.20
2022-10-11T07:11:33.488Z,39.60
2022-10-11T07:14:02.241Z,19.10
2022-10-11T07:16:29.033Z,17.40
2022-10-11T07:21:28.360Z,15.50
2022-10-11T07:23:55.166Z,22.40
2022-10-11T07:28:48.572Z,14.50
2022-10-11T07:31:20.381Z,19.80
2022-10-11T07:33:47.086Z,13.30
2022-10-11T07:36:13.940Z,19.80
2022-10-11T07:38:41.378Z,13.20
2022-10-11T07:41:08.620Z,15.50
2022-10-11T07:43:36.065Z,10.50
2022-10-11T07:46:04.863Z,7.80
2022-10-11T07:48:32.620Z,8.00
2022-10-11T07:51:21.917Z,12.10
2022-10-11T07:53:49.990Z,10.00
2022-10-11T07:56:18.491Z,4.40
2022-10-11T07:58:48.800Z,2.50
2022-10-11T08:01:15.752Z,2.90
2022-10-11T08:03:42.624Z,3.20
2022-10-11T08:08:37.112Z,2.80
2022-10-11T08:13:30.630Z,3.60
2022-10-11T08:15:57.600Z,2.80
2022-10-11T08:18:24.443Z,4.30
2022-10-11T08:20:51.263Z,3.70
2022-10-11T08:25:46.520Z,2.60
2022-10-11T08:28:20.784Z,4.80
2022-10-11T08:30:51.589Z,4.30
2022-10-11T08:33:19.125Z,5.50
2022-10-11T08:35:46.002Z,5.20
2022-10-11T08:38:12.811Z,4.90
2022-10-11T08:40:49.747Z,3.80
2022-10-11T08:43:47.162Z,5.00
2022-10-11T08:46:14.107Z,5.80
2022-10-11T08:48:49.982Z,3.60
2022-10-11T08:51:31.310Z,5.70
2022-10-11T08:54:11.209Z,2.50
2022-10-11T08:56:39.999Z,2.60
2022-10-11T08:59:09.118Z,2.40
2022-10-11T09:01:36.053Z,1.70
2022-10-11T09:04:03.704Z,1.90
2022-10-11T09:06:36.901Z,1.50
2022-10-11T09:09:18.846Z,2.20
2022-10-11T09:11:56.881Z,1.40
2022-10-11T09:14:48.445Z,2.10
2022-10-11T09:17:37.922Z,4.90
2022-10-11T09:20:22.790Z,2.30
2022-10-11T09:23:08.270Z,1.60
2022-10-11T09:25:37.897Z,1.40
2022-10-11T09:28:24.347Z,1.40
2022-10-11T09:30:52.961Z,1.80
2022-10-11T09:33:21.540Z,3.50
2022-10-11T09:35:50.374Z,8.30
2022-10-11T09:38:40.477Z,51.20
2022-10-11T09:41:35.248Z,13.40
2022-10-11T09:44:01.965Z,18.80
2022-10-11T09:48:59.274Z,74.90
2022-10-11T09:54:02.918Z,21.50
2022-10-11T09:56:30.313Z,8.90
2022-10-11T09:59:27.250Z,6.80
2022-10-11T10:02:12.865Z,7.90
2022-10-11T10:05:23.164Z,2.70
2022-10-11T10:08:02.840Z,3.20
2022-10-11T10:10:39.275Z,7.30
2022-10-11T10:13:27.042Z,2.70
2022-10-11T10:15:55.838Z,3.50
2022-10-11T10:18:35.835Z,4.30
2022-10-11T10:21:02.753Z,3.70
2022-10-11T10:23:31.540Z,3.40
2022-10-11T10:26:21.475Z,4.60
2022-10-11T10:29:00.933Z,22.00
2022-10-11T10:31:49.162Z,5.80
2022-10-11T10:34:33.096Z,6.10
2022-10-11T10:37:06.949Z,7.10
2022-10-11T10:39:43.000Z,6.80
2022-10-11T10:42:15.649Z,6.20
2022-10-11T10:44:43.125Z,5.60
2022-10-11T10:47:30.133Z,7.50
2022-10-11T10:50:16.063Z,8.80
2022-10-11T10:52:43.633Z,7.20
2022-10-11T10:55:24.583Z,5.60
2022-10-11T10:58:18.797Z,4.60
2022-10-11T11:00:50.772Z,4.60
2022-10-11T11:03:39.724Z,4.80
2022-10-11T11:06:08.195Z,4.90
2022-10-11T11:09:00.150Z,7.00
2022-10-11T11:11:42.292Z,8.70
2022-10-11T11:14:31.073Z,5.40
2022-10-11T11:17:03.592Z,3.90
2022-10-11T11:19:57.370Z,6.80
2022-10-11T11:22:39.880Z,6.90
2022-10-11T11:25:27.732Z,7.40
2022-10-11T11:30:51.098Z,10.40
2022-10-11T11:33:36.497Z,5.00
2022-10-11T11:36:06.174Z,8.00
2022-10-11T11:38:42.122Z,5.50
2022-10-11T11:41:16.279Z,8.50
2022-10-11T11:43:57.117Z,6.90
2022-10-11T11:46:45.165Z,5.30
2022-10-11T11:49:20.763Z,4.80
2022-10-11T11:51:47.489Z,5.20
2022-10-11T11:56:55.778Z,2.30
2022-10-11T11:59:45.831Z,3.10
2022-10-11T12:02:15.759Z,4.80
2022-10-11T12:04:43.548Z,3.20
2022-10-11T12:07:16.732Z,3.90
2022-10-11T12:09:51.735Z,2.90
2022-10-11T12:12:44.850Z,3.60
2022-10-11T12:15:19.736Z,1.90
2022-10-11T12:17:58.549Z,1.60
2022-10-11T12:20:31.990Z,3.60
2022-10-11T12:23:04.053Z,3.00
2022-10-11T12:25:39.693Z,5.80
2022-10-11T12:28:37.488Z,2.90
2022-10-11T12:31:06.464Z,2.90
2022-10-11T12:33:33.603Z,3.80
2022-10-11T12:38:35.495Z,2.50
2022-10-11T12:41:13.388Z,2.90
2022-10-11T12:43:49.411Z,4.70
2022-10-11T12:46:28.430Z,4.40
2022-10-11T12:49:26.624Z,2.20
2022-10-11T12:52:22.017Z,2.90
2022-10-11T12:55:07.740Z,3.90
2022-10-11T12:57:57.016Z,4.30
2022-10-11T13:00:26.356Z,4.50
2022-10-11T13:02:53.030Z,2.00
2022-10-11T13:07:49.664Z,1.80
2022-10-11T13:10:17.754Z,2.80
2022-10-11T13:12:45.117Z,3.00
2022-10-11T13:15:14.882Z,4.20
2022-10-11T13:17:41.961Z,4.00
2022-10-11T13:20:24.533Z,1.90
2022-10-11T13:22:55.117Z,16.80
2022-10-11T13:25:29.498Z,2.90
2022-10-11T13:27:57.263Z,3.40
2022-10-11T13:30:31.937Z,3.60
2022-10-11T13:33:01.854Z,2.60
2022-10-11T13:35:33.368Z,3.10
2022-10-11T13:38:00.315Z,5.10
2022-10-11T13:40:27.257Z,1.60
2022-10-11T13:42:54.124Z,5.00
2022-10-11T13:45:25.277Z,3.00
2022-10-11T13:47:52.653Z,4.80
2022-10-11T13:50:24.179Z,2.80
2022-10-11T13:53:01.869Z,293.40
2022-10-11T13:55:55.871Z,25.50
2022-10-11T13:58:35.468Z,31.70
2022-10-11T14:01:04.696Z,11.40
2022-10-11T14:03:40.778Z,4.80
2022-10-11T14:06:08.086Z,2.90
2022-10-11T14:08:59.505Z,3.90
2022-10-11T14:11:37.581Z,10.40
2022-10-11T14:14:29.488Z,3.00
2022-10-11T14:16:57.430Z,6.30
2022-10-11T14:19:24.195Z,2.90
2022-10-11T14:21:51.834Z,1.90
2022-10-11T14:24:18.734Z,4.00
2022-10-11T14:26:49.771Z,5.20
2022-10-11T14:29:32.467Z,5.10
2022-10-11T14:32:02.978Z,4.10
2022-10-11T14:34:29.772Z,4.80
2022-10-11T14:36:56.504Z,5.70
2022-10-11T14:39:24.340Z,6.00
2022-10-11T14:41:51.630Z,17.30
2022-10-11T14:44:18.706Z,12.30
2022-10-11T14:46:45.905Z,9.00
2022-10-11T14:49:14.387Z,9.00
2022-10-11T14:51:41.182Z,11.50
2022-10-11T14:54:08.011Z,17.50
2022-10-11T14:56:34.795Z,35.00
2022-10-11T14:59:01.710Z,35.60
2022-10-11T15:03:55.517Z,69.20
2022-10-11T15:08:59.565Z,219.10
2022-10-11T15:13:52.880Z,338.60
2022-10-11T15:18:50.901Z,388.50
2022-10-11T15:21:18.826Z,415.40
2022-10-11T15:23:45.551Z,523.10
2022-10-11T15:28:42.497Z,536.90
2022-10-11T15:33:37.309Z,470.10
2022-10-11T15:36:05.635Z,440.50
2022-10-11T15:38:32.477Z,385.50
2022-10-11T15:40:59.699Z,326.10
2022-10-11T15:43:27.588Z,254.20
2022-10-11T15:45:55.019Z,230.50
2022-10-11T15:48:22.913Z,206.10
2022-10-11T15:50:49.923Z,159.80
2022-10-11T15:54:24.778Z,158.50
2022-10-11T15:56:51.560Z,128.40
2022-10-11T15:59:18.392Z,116.20
2022-10-11T16:04:11.904Z,82.90
2022-10-11T16:09:05.321Z,84.40
2022-10-11T16:11:32.011Z,78.50
2022-10-11T16:13:58.739Z,81.40
2022-10-11T16:16:25.491Z,83.70
2022-10-11T16:21:20.938Z,93.40
2022-10-11T16:23:47.668Z,81.20
2022-10-11T16:26:14.910Z,92.80
2022-10-11T16:28:42.156Z,95.90
2022-10-11T16:31:10.191Z,97.00
2022-10-11T16:33:45.682Z,108.30
2022-10-11T16:36:40.739Z,129.60
2022-10-11T16:39:11.474Z,137.40
2022-10-11T16:41:38.248Z,147.30
2022-10-11T16:44:05.059Z,168.40
2022-10-11T16:48:59.311Z,229.80
2022-10-11T16:51:26.139Z,285.70
2022-10-11T16:56:22.665Z,265.70
2022-10-11T16:58:49.439Z,269.60
2022-10-11T17:01:16.247Z,230.10
2022-10-11T17:03:43.045Z,200.00
2022-10-11T17:06:09.985Z,207.40
2022-10-11T17:08:36.708Z,219.50
2022-10-11T17:11:03.511Z,201.90
2022-10-11T17:13:30.290Z,208.80
2022-10-11T17:18:23.668Z,190.20
2022-10-11T17:20:50.390Z,188.20
2022-10-11T17:23:17.072Z,200.40
2022-10-11T17:28:11.107Z,174.20
2022-10-11T17:30:38.146Z,176.10
2022-10-11T17:33:04.855Z,163.50
2022-10-11T17:35:32.157Z,170.60
2022-10-11T17:38:05.001Z,173.70
2022-10-11T17:40:32.796Z,196.00
2022-10-11T17:42:59.529Z,174.80
2022-10-11T17:47:52.897Z,190.50
2022-10-11T17:50:19.579Z,171.80
2022-10-11T17:52:46.337Z,182.40
2022-10-11T17:57:40.212Z,183.90
2022-10-11T18:00:07.573Z,168.30
2022-10-11T18:02:34.296Z,168.20
2022-10-11T18:05:00.995Z,187.60
2022-10-11T18:09:54.451Z,174.60
2022-10-11T18:14:47.888Z,157.70
2022-10-11T18:17:14.575Z,162.00
2022-10-11T18:19:41.350Z,139.40
2022-10-11T18:22:08.315Z,125.00
2022-10-11T18:24:35.047Z,120.20
2022-10-11T18:27:01.800Z,104.10
2022-10-11T18:29:28.489Z,105.20
2022-10-11T18:31:55.224Z,97.80
2022-10-11T18:34:22.192Z,84.80
2022-10-11T18:36:49.096Z,98.70
2022-10-11T18:39:16.007Z,85.60
2022-10-11T18:41:44.682Z,90.10
2022-10-11T18:44:14.054Z,97.70
2022-10-11T18:46:41.394Z,90.40
2022-10-11T18:49:08.862Z,93.50
2022-10-11T18:51:39.599Z,88.40
2022-10-11T18:54:07.222Z,83.80
2022-10-11T18:56:34.665Z,90.90
2022-10-11T18:59:01.512Z,75.60
2022-10-11T19:03:56.939Z,71.60
2022-10-11T19:06:32.364Z,57.10
2022-10-11T19:09:01.275Z,54.00
2022-10-11T19:11:28.281Z,50.50
2022-10-11T19:13:59.454Z,48.10
2022-10-11T19:16:26.968Z,47.00
2022-10-11T19:18:53.879Z,46.50
2022-10-11T19:23:47.993Z,38.70
2022-10-11T19:26:19.785Z,44.30
2022-10-11T19:28:46.915Z,40.30
2022-10-11T19:31:16.867Z,35.90
2022-10-11T19:33:45.291Z,39.80
2022-10-11T19:36:13.832Z,42.90
2022-10-11T19:38:43.719Z,41.90
2022-10-11T19:41:10.739Z,36.90
2022-10-11T19:43:37.591Z,36.20
2022-10-11T19:48:31.810Z,36.30
2022-10-11T19:53:32.397Z,39.80
2022-10-11T19:56:03.116Z,46.30
2022-10-11T19:58:29.971Z,57.00
2022-10-11T20:01:12.020Z,43.10
2022-10-11T20:03:38.877Z,59.00
2022-10-11T20:08:33.240Z,76.10
2022-10-11T20:13:32.424Z,82.80
2022-10-11T20:16:20.610Z,91.50
2022-10-11T20:18:47.291Z,95.90
2022-10-11T20:21:15.685Z,91.00
2022-10-11T20:23:43.318Z,85.60
2022-10-11T20:26:23.577Z,88.40
2022-10-11T20:28:55.796Z,85.00
2022-10-11T20:31:27.843Z,79.10
2022-10-11T20:33:56.091Z,80.60
2022-10-11T20:36:22.966Z,84.00
2022-10-11T20:41:18.866Z,71.70
2022-10-11T20:43:46.416Z,78.30
2022-10-11T20:46:15.120Z,75.10
2022-10-11T20:48:41.895Z,77.70
2022-10-11T20:51:09.632Z,74.10
2022-10-11T20:53:37.273Z,68.60
2022-10-11T20:56:05.117Z,81.20
2022-10-11T20:58:31.825Z,66.20
2022-10-11T21:00:58.564Z,68.90
2022-10-11T21:06:01.054Z,56.20
2022-10-11T21:10:59.342Z,60.30
2022-10-11T21:13:26.047Z,48.60
2022-10-11T21:15:52.937Z,49.40
2022-10-11T21:18:19.896Z,42.40
2022-10-11T21:20:46.832Z,42.20
2022-10-11T21:25:40.724Z,38.60
2022-10-11T21:30:34.139Z,36.00
2022-10-11T21:33:00.791Z,52.00
2022-10-11T21:35:27.970Z,45.50
2022-10-11T21:37:55.282Z,49.60
2022-10-11T21:40:22.027Z,44.70
2022-10-11T21:42:48.714Z,45.80
2022-10-11T21:45:15.458Z,48.40
2022-10-11T21:47:46.318Z,48.70
2022-10-11T21:50:12.986Z,44.90
2022-10-11T21:52:39.730Z,44.80
2022-10-11T21:57:33.191Z,45.90
2022-10-11T22:02:26.525Z,36.40
2022-10-11T22:04:53.214Z,42.60
2022-10-11T22:07:19.896Z,38.90
2022-10-11T22:09:46.560Z,44.10
2022-10-11T22:14:39.953Z,43.70
2022-10-11T22:17:06.687Z,45.40
2022-10-11T22:22:00.001Z,42.10
2022-10-11T22:24:28.235Z,36.90
2022-10-11T22:26:54.978Z,41.60
2022-10-11T22:31:48.281Z,43.70
2022-10-11T22:34:14.999Z,50.20
2022-10-11T22:36:41.933Z,51.10
2022-10-11T22:39:10.145Z,54.40
2022-10-11T22:41:37.495Z,56.90
2022-10-11T22:44:04.454Z,54.60
2022-10-11T22:46:31.156Z,49.30
2022-10-11T22:48:57.844Z,51.50
2022-10-11T22:51:24.586Z,54.20
2022-10-11T22:56:17.911Z,36.50
2022-10-11T22:58:44.609Z,43.80
2022-10-11T23:01:13.069Z,38.80
2022-10-11T23:03:39.840Z,32.80
2022-10-11T23:06:06.816Z,36.40
2022-10-11T23:08:33.562Z,29.90
2022-10-11T23:13:34.742Z,23.90
2022-10-11T23:18:37.594Z,23.90
2022-10-11T23:21:04.762Z,24.60
2022-10-11T23:23:31.454Z,21.90
2022-10-11T23:26:05.109Z,17.80
2022-10-11T23:28:32.035Z,19.10
2022-10-11T23:30:58.772Z,19.00
2022-10-11T23:33:25.453Z,19.30
2022-10-11T23:35:52.115Z,19.40
2022-10-11T23:38:18.788Z,19.50
2022-10-11T23:40:45.484Z,19.20
2022-10-11T23:43:12.168Z,17.30
2022-10-11T23:45:38.893Z,19.60
2022-10-11T23:48:05.723Z,16.60
2022-10-11T23:52:59.023Z,19.40
2022-10-11T23:55:25.735Z,16.80
2022-10-11T23:57:52.382Z,17.20
